sensor_id;sensor_type;location;lat;lon;timestamp;pressure;altitude;pressure_sealevel;temperature;humidity
70314;BME280;57725;47.526;18.986;2023-04-01T00:00:59;98412.50;;;11.88;95.89
70314;BME280;57725;47.526;18.986;2023-04-01T00:03:26;98408.19;;;11.87;95.75
70314;BME280;57725;47.526;18.986;2023-04-01T00:05:53;98403.81;;;11.87;95.94
70314;BME280;57725;47.526;18.986;2023-04-01T00:08:18;98404.75;;;11.86;95.78
70314;BME280;57725;47.526;18.986;2023-04-01T00:10:44;98407.47;;;11.85;95.71
70314;BME280;57725;47.526;18.986;2023-04-01T00:13:12;98421.41;;;11.85;95.87
70314;BME280;57725;47.526;18.986;2023-04-01T00:15:41;98416.16;;;11.85;95.71
70314;BME280;57725;47.526;18.986;2023-04-01T00:18:07;98402.34;;;11.83;95.79
70314;BME280;57725;47.526;18.986;2023-04-01T00:20:35;98407.47;;;11.85;95.64
70314;BME280;57725;47.526;18.986;2023-04-01T00:23:02;98407.56;;;11.83;95.87
70314;BME280;57725;47.526;18.986;2023-04-01T00:25:28;98405.78;;;11.84;95.68
70314;BME280;57725;47.526;18.986;2023-04-01T00:27:53;98404.13;;;11.83;95.73
70314;BME280;57725;47.526;18.986;2023-04-01T00:30:21;98398.88;;;11.83;95.77
70314;BME280;57725;47.526;18.986;2023-04-01T00:32:51;98404.13;;;11.83;95.68
70314;BME280;57725;47.526;18.986;2023-04-01T00:35:16;98397.09;;;11.83;95.71
70314;BME280;57725;47.526;18.986;2023-04-01T00:37:42;98398.16;;;11.81;95.62
70314;BME280;57725;47.526;18.986;2023-04-01T00:40:08;98398.16;;;11.81;95.67
70314;BME280;57725;47.526;18.986;2023-04-01T00:42:45;98393.84;;;11.80;96.00
70314;BME280;57725;47.526;18.986;2023-04-01T00:47:51;98385.16;;;11.79;95.67
70314;BME280;57725;47.526;18.986;2023-04-01T00:50:16;98396.47;;;11.80;95.74
70314;BME280;57725;47.526;18.986;2023-04-01T00:52:42;98390.41;;;11.79;95.57
70314;BME280;57725;47.526;18.986;2023-04-01T00:55:10;98386.94;;;11.79;95.83
70314;BME280;57725;47.526;18.986;2023-04-01T00:57:37;98387.03;;;11.77;95.58
70314;BME280;57725;47.526;18.986;2023-04-01T01:00:06;98393.13;;;11.78;95.70
70314;BME280;57725;47.526;18.986;2023-04-01T01:02:34;98392.28;;;11.77;95.85
70314;BME280;57725;47.526;18.986;2023-04-01T01:05:02;98388.84;;;11.77;95.74
70314;BME280;57725;47.526;18.986;2023-04-01T01:13:17;98384.63;;;11.74;95.86
70314;BME280;57725;47.526;18.986;2023-04-01T01:15:49;98383.81;;;11.74;95.75
70314;BME280;57725;47.526;18.986;2023-04-01T01:18:23;98384.63;;;11.74;95.77
70314;BME280;57725;47.526;18.986;2023-04-01T01:24:07;98367.25;;;11.73;95.79
70314;BME280;57725;47.526;18.986;2023-04-01T01:35:31;98369.97;;;11.72;95.90
70314;BME280;57725;47.526;18.986;2023-04-01T01:38:01;98373.63;;;11.69;96.02
70314;BME280;57725;47.526;18.986;2023-04-01T01:40:31;98371.03;;;11.69;95.88
70314;BME280;57725;47.526;18.986;2023-04-01T01:43:01;98377.19;;;11.68;95.85
70314;BME280;57725;47.526;18.986;2023-04-01T01:45:30;98381.50;;;11.69;95.85
70314;BME280;57725;47.526;18.986;2023-04-01T01:47:58;98378.03;;;11.69;95.74
70314;BME280;57725;47.526;18.986;2023-04-01T01:50:26;98367.56;;;11.69;96.00
70314;BME280;57725;47.526;18.986;2023-04-01T01:53:00;98364.09;;;11.68;95.91
70314;BME280;57725;47.526;18.986;2023-04-01T01:55:37;98377.19;;;11.68;95.92
70314;BME280;57725;47.526;18.986;2023-04-01T01:58:17;98382.53;;;11.67;95.94
70314;BME280;57725;47.526;18.986;2023-04-01T02:00:54;98381.69;;;11.66;95.91
70314;BME280;57725;47.526;18.986;2023-04-01T02:03:24;98371.38;;;11.65;95.99
70314;BME280;57725;47.526;18.986;2023-04-01T02:05:52;98371.22;;;11.66;95.91
70314;BME280;57725;47.526;18.986;2023-04-01T02:08:40;98368.63;;;11.66;96.16
70314;BME280;57725;47.526;18.986;2023-04-01T02:11:12;98369.59;;;11.65;96.04
70314;BME280;57725;47.526;18.986;2023-04-01T02:16:18;98375.75;;;11.64;95.91
70314;BME280;57725;47.526;18.986;2023-04-01T02:18:48;98367.91;;;11.64;96.23
70314;BME280;57725;47.526;18.986;2023-04-01T02:21:15;98372.31;;;11.64;95.72
70314;BME280;57725;47.526;18.986;2023-04-01T02:23:44;98367.06;;;11.64;95.86
70314;BME280;57725;47.526;18.986;2023-04-01T02:26:11;98363.63;;;11.63;95.90
70314;BME280;57725;47.526;18.986;2023-04-01T02:28:40;98369.69;;;11.64;96.02
70314;BME280;57725;47.526;18.986;2023-04-01T02:31:10;98360.16;;;11.63;95.83
70314;BME280;57725;47.526;18.986;2023-04-01T02:33:37;98352.31;;;11.63;95.92
70314;BME280;57725;47.526;18.986;2023-04-01T02:36:10;98347.19;;;11.61;95.94
70314;BME280;57725;47.526;18.986;2023-04-01T02:38:36;98348.03;;;11.61;96.02
70314;BME280;57725;47.526;18.986;2023-04-01T02:41:02;98360.25;;;11.61;95.90
70314;BME280;57725;47.526;18.986;2023-04-01T02:43:28;98347.28;;;11.59;96.13
70314;BME280;57725;47.526;18.986;2023-04-01T02:45:53;98348.97;;;11.60;95.98
70314;BME280;57725;47.526;18.986;2023-04-01T02:48:19;98343.84;;;11.59;96.16
70314;BME280;57725;47.526;18.986;2023-04-01T02:50:45;98349.91;;;11.59;96.20
70314;BME280;57725;47.526;18.986;2023-04-01T02:53:13;98356.06;;;11.58;95.67
70314;BME280;57725;47.526;18.986;2023-04-01T02:55:39;98362.25;;;11.57;95.98
70314;BME280;57725;47.526;18.986;2023-04-01T02:58:04;98357.97;;;11.56;96.07
70314;BME280;57725;47.526;18.986;2023-04-01T03:00:32;98357.84;;;11.58;95.84
70314;BME280;57725;47.526;18.986;2023-04-01T03:02:57;98369.28;;;11.57;95.88
70314;BME280;57725;47.526;18.986;2023-04-01T03:05:25;98365.81;;;11.56;95.94
70314;BME280;57725;47.526;18.986;2023-04-01T03:07:51;98358.91;;;11.55;96.12
70314;BME280;57725;47.526;18.986;2023-04-01T03:10:16;98372.81;;;11.56;96.13
70314;BME280;57725;47.526;18.986;2023-04-01T03:12:42;98367.59;;;11.56;95.76
70314;BME280;57725;47.526;18.986;2023-04-01T03:15:11;98364.13;;;11.55;96.03
70314;BME280;57725;47.526;18.986;2023-04-01T03:17:37;98359.84;;;11.54;95.82
70314;BME280;57725;47.526;18.986;2023-04-01T03:20:03;98359.84;;;11.54;95.92
70314;BME280;57725;47.526;18.986;2023-04-01T03:22:30;98359.84;;;11.54;95.71
70314;BME280;57725;47.526;18.986;2023-04-01T03:24:55;98378.16;;;11.54;95.81
70314;BME280;57725;47.526;18.986;2023-04-01T03:27:21;98378.16;;;11.54;95.84
70314;BME280;57725;47.526;18.986;2023-04-01T03:29:49;98383.53;;;11.53;95.87
70314;BME280;57725;47.526;18.986;2023-04-01T03:32:14;98386.16;;;11.53;95.91
70314;BME280;57725;47.526;18.986;2023-04-01T03:34:42;98380.91;;;11.53;95.76
70314;BME280;57725;47.526;18.986;2023-04-01T03:37:08;98389.72;;;11.52;96.05
70314;BME280;57725;47.526;18.986;2023-04-01T03:39:35;98388.88;;;11.51;95.92
70314;BME280;57725;47.526;18.986;2023-04-01T03:42:03;98388.97;;;11.50;95.85
70314;BME280;57725;47.526;18.986;2023-04-01T03:44:33;98388.03;;;11.51;96.20
70314;BME280;57725;47.526;18.986;2023-04-01T03:47:00;98395.88;;;11.51;96.16
70314;BME280;57725;47.526;18.986;2023-04-01T03:49:26;98391.59;;;11.50;95.71
70314;BME280;57725;47.526;18.986;2023-04-01T03:51:51;98396.00;;;11.49;95.81
70314;BME280;57725;47.526;18.986;2023-04-01T03:54:17;98394.22;;;11.50;95.70
70314;BME280;57725;47.526;18.986;2023-04-01T03:56:43;98394.31;;;11.48;95.62
70314;BME280;57725;47.526;18.986;2023-04-01T03:59:08;98395.16;;;11.49;95.82
70314;BME280;57725;47.526;18.986;2023-04-01T04:01:34;98405.63;;;11.49;95.89
70314;BME280;57725;47.526;18.986;2023-04-01T04:04:00;98404.78;;;11.48;95.95
70314;BME280;57725;47.526;18.986;2023-04-01T04:06:26;98409.19;;;11.48;95.97
70314;BME280;57725;47.526;18.986;2023-04-01T04:08:52;98410.97;;;11.47;96.02
70314;BME280;57725;47.526;18.986;2023-04-01T04:11:23;98405.72;;;11.47;95.86
70314;BME280;57725;47.526;18.986;2023-04-01T04:13:49;98402.38;;;11.45;95.83
70314;BME280;57725;47.526;18.986;2023-04-01T04:16:16;98402.38;;;11.45;95.92
70314;BME280;57725;47.526;18.986;2023-04-01T04:18:41;98399.75;;;11.45;95.71
70314;BME280;57725;47.526;18.986;2023-04-01T04:21:10;98398.91;;;11.45;95.86
70314;BME280;57725;47.526;18.986;2023-04-01T04:23:36;98409.38;;;11.45;96.00
70314;BME280;57725;47.526;18.986;2023-04-01T04:26:05;98408.53;;;11.44;96.01
70314;BME280;57725;47.526;18.986;2023-04-01T04:28:31;98405.19;;;11.42;95.97
70314;BME280;57725;47.526;18.986;2023-04-01T04:30:59;98408.66;;;11.43;95.91
70314;BME280;57725;47.526;18.986;2023-04-01T04:33:25;98399.84;;;11.44;95.92
70314;BME280;57725;47.526;18.986;2023-04-01T04:35:55;98396.53;;;11.42;95.96
70314;BME280;57725;47.526;18.986;2023-04-01T04:38:20;98397.47;;;11.41;95.83
70314;BME280;57725;47.526;18.986;2023-04-01T04:40:46;98395.69;;;11.41;95.53
70314;BME280;57725;47.526;18.986;2023-04-01T04:43:13;98400.94;;;11.41;95.79
70314;BME280;57725;47.526;18.986;2023-04-01T04:45:41;98387.94;;;11.40;95.90
70314;BME280;57725;47.526;18.986;2023-04-01T04:48:16;98400.09;;;11.41;95.96
70314;BME280;57725;47.526;18.986;2023-04-01T04:50:47;98394.97;;;11.39;95.75
70314;BME280;57725;47.526;18.986;2023-04-01T04:53:18;98394.97;;;11.39;96.00
70314;BME280;57725;47.526;18.986;2023-04-01T04:55:49;98396.75;;;11.39;96.05
70314;BME280;57725;47.526;18.986;2023-04-01T04:58:17;98395.91;;;11.38;95.80
70314;BME280;57725;47.526;18.986;2023-04-01T05:00:46;98395.06;;;11.38;95.68
70314;BME280;57725;47.526;18.986;2023-04-01T05:03:14;98396.84;;;11.37;95.76
70314;BME280;57725;47.526;18.986;2023-04-01T05:05:48;98394.22;;;11.37;95.74
70314;BME280;57725;47.526;18.986;2023-04-01T05:08:14;98396.00;;;11.37;95.78
70314;BME280;57725;47.526;18.986;2023-04-01T05:10:41;98398.72;;;11.35;95.91
70314;BME280;57725;47.526;18.986;2023-04-01T05:13:10;98398.72;;;11.35;95.94
70314;BME280;57725;47.526;18.986;2023-04-01T05:15:35;98394.31;;;11.36;95.95
70314;BME280;57725;47.526;18.986;2023-04-01T05:18:01;98392.66;;;11.35;95.99
70314;BME280;57725;47.526;18.986;2023-04-01T05:20:26;98397.88;;;11.35;95.66
70314;BME280;57725;47.526;18.986;2023-04-01T05:22:56;98397.03;;;11.34;95.75
70314;BME280;57725;47.526;18.986;2023-04-01T05:25:24;98396.09;;;11.35;96.09
70314;BME280;57725;47.526;18.986;2023-04-01T05:27:49;98404.06;;;11.34;95.93
70314;BME280;57725;47.526;18.986;2023-04-01T05:30:17;98405.84;;;11.33;96.00
70314;BME280;57725;47.526;18.986;2023-04-01T05:32:43;98402.38;;;11.33;95.75
70314;BME280;57725;47.526;18.986;2023-04-01T05:35:09;98412.00;;;11.32;96.07
70314;BME280;57725;47.526;18.986;2023-04-01T05:37:37;98409.38;;;11.32;95.95
70314;BME280;57725;47.526;18.986;2023-04-01T05:40:06;98403.31;;;11.32;96.03
70314;BME280;57725;47.526;18.986;2023-04-01T05:42:34;98408.56;;;11.32;95.94
70314;BME280;57725;47.526;18.986;2023-04-01T05:45:02;98411.16;;;11.32;95.98
70314;BME280;57725;47.526;18.986;2023-04-01T05:47:27;98406.91;;;11.31;96.11
70314;BME280;57725;47.526;18.986;2023-04-01T05:49:52;98412.94;;;11.31;96.10
70314;BME280;57725;47.526;18.986;2023-04-01T05:52:18;98406.06;;;11.30;96.05
70314;BME280;57725;47.526;18.986;2023-04-01T05:54:46;98406.06;;;11.30;96.21
70314;BME280;57725;47.526;18.986;2023-04-01T05:57:11;98400.84;;;11.30;96.29
70314;BME280;57725;47.526;18.986;2023-04-01T05:59:36;98406.06;;;11.30;96.35
70314;BME280;57725;47.526;18.986;2023-04-01T06:02:02;98401.78;;;11.29;96.37
70314;BME280;57725;47.526;18.986;2023-04-01T06:04:33;98402.63;;;11.30;96.24
70314;BME280;57725;47.526;18.986;2023-04-01T06:06:59;98405.31;;;11.28;95.96
70314;BME280;57725;47.526;18.986;2023-04-01T06:09:29;98415.78;;;11.28;96.23
70314;BME280;57725;47.526;18.986;2023-04-01T06:17:48;98401.03;;;11.27;96.06
70314;BME280;57725;47.526;18.986;2023-04-01T06:25:58;98403.75;;;11.25;96.25
70314;BME280;57725;47.526;18.986;2023-04-01T06:47:57;98419.34;;;11.27;96.55
70314;BME280;57725;47.526;18.986;2023-04-01T06:50:30;98414.13;;;11.27;96.75
70314;BME280;57725;47.526;18.986;2023-04-01T06:55:41;98428.97;;;11.27;96.78
70314;BME280;57725;47.526;18.986;2023-04-01T06:58:22;98421.97;;;11.27;96.67
70314;BME280;57725;47.526;18.986;2023-04-01T07:00:51;98421.88;;;11.29;96.44
70314;BME280;57725;47.526;18.986;2023-04-01T07:03:22;98421.13;;;11.27;96.66
70314;BME280;57725;47.526;18.986;2023-04-01T07:05:54;98418.41;;;11.28;96.38
70314;BME280;57725;47.526;18.986;2023-04-01T07:08:24;98416.63;;;11.29;96.70
70314;BME280;57725;47.526;18.986;2023-04-01T07:13:25;98418.31;;;11.30;97.40
70314;BME280;57725;47.526;18.986;2023-04-01T07:18:30;98411.31;;;11.30;97.66
70314;BME280;57725;47.526;18.986;2023-04-01T07:20:58;98407.84;;;11.30;97.33
70314;BME280;57725;47.526;18.986;2023-04-01T07:23:39;98403.44;;;11.30;97.53
70314;BME280;57725;47.526;18.986;2023-04-01T07:26:18;98409.53;;;11.31;97.63
70314;BME280;57725;47.526;18.986;2023-04-01T07:28:44;98411.31;;;11.30;97.50
70314;BME280;57725;47.526;18.986;2023-04-01T07:31:25;98415.69;;;11.30;97.28
70314;BME280;57725;47.526;18.986;2023-04-01T07:39:25;98423.41;;;11.31;98.01
70314;BME280;57725;47.526;18.986;2023-04-01T07:44:45;98410.31;;;11.31;97.88
70314;BME280;57725;47.526;18.986;2023-04-01T07:55:21;98420.00;;;11.31;97.52
70314;BME280;57725;47.526;18.986;2023-04-01T08:06:02;98423.53;;;11.30;97.76
70314;BME280;57725;47.526;18.986;2023-04-01T08:14:08;98433.06;;;11.31;97.20
70314;BME280;57725;47.526;18.986;2023-04-01T08:16:46;98427.00;;;11.30;97.42
70314;BME280;57725;47.526;18.986;2023-04-01T08:20:23;98422.59;;;11.31;97.63
70314;BME280;57725;47.526;18.986;2023-04-01T08:24:55;98432.09;;;11.32;97.36
70314;BME280;57725;47.526;18.986;2023-04-01T08:30:15;98429.38;;;11.33;97.50
70314;BME280;57725;47.526;18.986;2023-04-01T08:32:47;98424.16;;;11.33;97.49
70314;BME280;57725;47.526;18.986;2023-04-01T08:35:38;98426.75;;;11.33;97.61
70314;BME280;57725;47.526;18.986;2023-04-01T08:38:11;98424.03;;;11.35;97.65
70314;BME280;57725;47.526;18.986;2023-04-01T08:49:15;98417.97;;;11.34;97.69
70314;BME280;57725;47.526;18.986;2023-04-01T08:55:04;98435.34;;;11.35;97.78
70314;BME280;57725;47.526;18.986;2023-04-01T09:00:38;98437.03;;;11.36;97.77
70314;BME280;57725;47.526;18.986;2023-04-01T09:06:37;98434.31;;;11.38;98.20
70314;BME280;57725;47.526;18.986;2023-04-01T09:22:24;98427.09;;;11.41;98.42
70314;BME280;57725;47.526;18.986;2023-04-01T09:27:44;98428.75;;;11.42;98.38
70314;BME280;57725;47.526;18.986;2023-04-01T09:30:48;98428.63;;;11.44;98.39
70314;BME280;57725;47.526;18.986;2023-04-01T09:36:18;98428.63;;;11.44;98.29
70314;BME280;57725;47.526;18.986;2023-04-01T09:38:56;98425.09;;;11.45;98.51
70314;BME280;57725;47.526;18.986;2023-04-01T09:44:18;98422.47;;;11.45;98.44
70314;BME280;57725;47.526;18.986;2023-04-01T09:52:52;98424.03;;;11.47;98.41
70314;BME280;57725;47.526;18.986;2023-04-01T09:58:37;98430.94;;;11.48;98.39
70314;BME280;57725;47.526;18.986;2023-04-01T10:04:23;98428.34;;;11.48;98.11
70314;BME280;57725;47.526;18.986;2023-04-01T10:10:07;98428.13;;;11.51;98.28
70314;BME280;57725;47.526;18.986;2023-04-01T10:12:47;98428.13;;;11.51;98.59
70314;BME280;57725;47.526;18.986;2023-04-01T10:33:06;98427.91;;;11.54;97.84
70314;BME280;57725;47.526;18.986;2023-04-01T10:44:01;98424.22;;;11.57;97.83
70314;BME280;57725;47.526;18.986;2023-04-01T11:06:18;98423.72;;;11.65;97.23
70314;BME280;57725;47.526;18.986;2023-04-01T11:25:11;98407.53;;;11.96;88.87
70314;BME280;57725;47.526;18.986;2023-04-01T11:28:11;98425.03;;;11.95;89.78
70314;BME280;57725;47.526;18.986;2023-04-01T11:30:59;98413.72;;;11.95;90.63
70314;BME280;57725;47.526;18.986;2023-04-01T11:33:46;98411.22;;;11.93;91.38
70314;BME280;57725;47.526;18.986;2023-04-01T11:39:02;98425.25;;;11.92;93.02
70314;BME280;57725;47.526;18.986;2023-04-01T11:44:23;98428.91;;;11.90;93.07
70314;BME280;57725;47.526;18.986;2023-04-01T11:50:00;98441.31;;;11.88;93.24
70314;BME280;57725;47.526;18.986;2023-04-01T11:53:01;98436.88;;;11.88;93.50
70314;BME280;57725;47.526;18.986;2023-04-01T12:07:18;98423.91;;;11.87;93.48
70314;BME280;57725;47.526;18.986;2023-04-01T12:09:56;98420.47;;;11.86;93.54
70314;BME280;57725;47.526;18.986;2023-04-01T12:17:54;98425.59;;;11.88;93.61
70314;BME280;57725;47.526;18.986;2023-04-01T12:20:45;98430.00;;;11.87;93.78
70314;BME280;57725;47.526;18.986;2023-04-01T12:34:54;98441.06;;;11.91;93.68
70314;BME280;57725;47.526;18.986;2023-04-01T12:43:11;98430.47;;;11.92;93.98
70314;BME280;57725;47.526;18.986;2023-04-01T12:54:17;98417.19;;;11.95;93.82
70314;BME280;57725;47.526;18.986;2023-04-01T13:10:52;98402.94;;;12.00;93.69
70314;BME280;57725;47.526;18.986;2023-04-01T13:16:21;98408.88;;;12.02;93.79
70314;BME280;57725;47.526;18.986;2023-04-01T13:19:04;98409.72;;;12.02;93.61
70314;BME280;57725;47.526;18.986;2023-04-01T13:24:39;98411.50;;;12.02;93.86
70314;BME280;57725;47.526;18.986;2023-04-01T13:27:18;98414.00;;;12.03;93.90
70314;BME280;57725;47.526;18.986;2023-04-01T13:33:13;98419.13;;;12.05;93.97
70314;BME280;57725;47.526;18.986;2023-04-01T13:35:36;98425.22;;;12.05;93.98
70314;BME280;57725;47.526;18.986;2023-04-01T13:43:43;98444.38;;;12.06;93.97
70314;BME280;57725;47.526;18.986;2023-04-01T13:54:36;98441.56;;;12.09;94.27
70314;BME280;57725;47.526;18.986;2023-04-01T13:57:50;98445.84;;;12.10;94.24
70314;BME280;57725;47.526;18.986;2023-04-01T14:11:23;98430.97;;;12.10;94.40
70314;BME280;57725;47.526;18.986;2023-04-01T14:22:38;98425.59;;;12.12;94.73
70314;BME280;57725;47.526;18.986;2023-04-01T14:25:28;98425.59;;;12.12;94.75
70314;BME280;57725;47.526;18.986;2023-04-01T14:33:28;98429.78;;;12.14;95.00
70314;BME280;57725;47.526;18.986;2023-04-01T14:36:19;98420.16;;;12.15;95.02
70314;BME280;57725;47.526;18.986;2023-04-01T14:41:58;98419.47;;;12.24;93.31
70314;BME280;57725;47.526;18.986;2023-04-01T14:45:12;98414.25;;;13.73;80.33
70314;BME280;57725;47.526;18.986;2023-04-01T14:48:05;98408.47;;;15.09;73.57
70314;BME280;57725;47.526;18.986;2023-04-01T14:50:44;98402.97;;;15.73;70.03
70314;BME280;57725;47.526;18.986;2023-04-01T14:55:51;98403.31;;;16.68;66.17
70314;BME280;57725;47.526;18.986;2023-04-01T14:58:21;98402.16;;;16.99;64.91
70314;BME280;57725;47.526;18.986;2023-04-01T15:06:45;98411.22;;;17.43;62.84
70314;BME280;57725;47.526;18.986;2023-04-01T15:19:51;98415.06;;;17.68;61.96
70314;BME280;57725;47.526;18.986;2023-04-01T15:22:45;98407.84;;;17.60;61.55
70314;BME280;57725;47.526;18.986;2023-04-01T15:28:35;98414.53;;;17.55;52.04
70314;BME280;57725;47.526;18.986;2023-04-01T15:34:20;98413.06;;;17.80;50.38
70314;BME280;57725;47.526;18.986;2023-04-01T15:40:15;98406.53;;;17.84;50.11
70314;BME280;57725;47.526;18.986;2023-04-01T15:42:55;98417.31;;;17.90;48.78
70314;BME280;57725;47.526;18.986;2023-04-01T15:53:42;98418.28;;;16.77;54.03
70314;BME280;57725;47.526;18.986;2023-04-01T15:56:37;98426.38;;;16.06;56.40
70314;BME280;57725;47.526;18.986;2023-04-01T15:59:28;98429.13;;;15.55;58.05
70314;BME280;57725;47.526;18.986;2023-04-01T16:02:18;98433.88;;;15.19;59.77
70314;BME280;57725;47.526;18.986;2023-04-01T16:04:58;98432.47;;;14.95;61.67
70314;BME280;57725;47.526;18.986;2023-04-01T16:22:14;98463.19;;;13.97;67.26
70314;BME280;57725;47.526;18.986;2023-04-01T16:24:55;98458.78;;;13.86;68.76
70314;BME280;57725;47.526;18.986;2023-04-01T16:27:33;98466.44;;;13.78;69.19
70314;BME280;57725;47.526;18.986;2023-04-01T16:33:13;98469.41;;;13.62;71.04
70314;BME280;57725;47.526;18.986;2023-04-01T16:35:49;98472.41;;;13.58;72.42
70314;BME280;57725;47.526;18.986;2023-04-01T16:41:05;98478.34;;;13.49;74.25
70314;BME280;57725;47.526;18.986;2023-04-01T16:43:42;98471.66;;;13.45;75.19
70314;BME280;57725;47.526;18.986;2023-04-01T16:46:31;98480.72;;;13.40;75.56
70314;BME280;57725;47.526;18.986;2023-04-01T16:54:54;98481.41;;;13.31;79.11
70314;BME280;57725;47.526;18.986;2023-04-01T16:57:36;98487.72;;;13.29;80.07
70314;BME280;57725;47.526;18.986;2023-04-01T17:10:50;98490.22;;;13.19;82.50
70314;BME280;57725;47.526;18.986;2023-04-01T17:13:41;98505.22;;;13.17;82.49
70314;BME280;57725;47.526;18.986;2023-04-01T17:16:24;98499.28;;;13.15;83.17
70314;BME280;57725;47.526;18.986;2023-04-01T17:30:26;98514.81;;;13.05;84.84
70314;BME280;57725;47.526;18.986;2023-04-01T17:38:34;98528.19;;;13.02;87.84
70314;BME280;57725;47.526;18.986;2023-04-01T17:41:18;98528.19;;;13.02;88.42
70314;BME280;57725;47.526;18.986;2023-04-01T17:43:52;98528.31;;;13.01;88.94
70314;BME280;57725;47.526;18.986;2023-04-01T17:49:10;98530.19;;;12.99;89.05
70314;BME280;57725;47.526;18.986;2023-04-01T17:54:32;98543.41;;;12.97;89.21
70314;BME280;57725;47.526;18.986;2023-04-01T18:02:47;98548.88;;;12.94;89.70
70314;BME280;57725;47.526;18.986;2023-04-01T18:07:56;98563.88;;;12.92;89.87
70314;BME280;57725;47.526;18.986;2023-04-01T18:18:43;98576.31;;;12.90;90.15
70314;BME280;57725;47.526;18.986;2023-04-01T18:27:11;98583.56;;;12.87;90.34
70314;BME280;57725;47.526;18.986;2023-04-01T18:29:53;98590.59;;;12.86;90.47
70314;BME280;57725;47.526;18.986;2023-04-01T18:32:27;98589.75;;;12.86;90.74
70314;BME280;57725;47.526;18.986;2023-04-01T18:37:32;98601.19;;;12.85;90.76
70314;BME280;57725;47.526;18.986;2023-04-01T18:42:57;98605.69;;;12.83;90.74
70314;BME280;57725;47.526;18.986;2023-04-01T18:45:44;98611.88;;;12.82;90.75
70314;BME280;57725;47.526;18.986;2023-04-01T18:54:07;98610.19;;;12.81;90.79
70314;BME280;57725;47.526;18.986;2023-04-01T18:56:44;98606.03;;;12.78;90.95
70314;BME280;57725;47.526;18.986;2023-04-01T19:05:15;98611.38;;;12.77;90.98
70314;BME280;57725;47.526;18.986;2023-04-01T19:07:52;98607.94;;;12.76;91.18
70314;BME280;57725;47.526;18.986;2023-04-01T19:10:45;98608.88;;;12.75;91.14
70314;BME280;57725;47.526;18.986;2023-04-01T19:21:44;98608.25;;;12.72;91.32
70314;BME280;57725;47.526;18.986;2023-04-01T19:24:22;98604.78;;;12.71;91.18
70314;BME280;57725;47.526;18.986;2023-04-01T19:40:54;98619.09;;;12.67;91.22
70314;BME280;57725;47.526;18.986;2023-04-01T19:59:40;98638.59;;;12.63;91.26
70314;BME280;57725;47.526;18.986;2023-04-01T20:04:44;98642.16;;;12.62;91.34
70314;BME280;57725;47.526;18.986;2023-04-01T20:07:27;98638.69;;;12.61;91.46
70314;BME280;57725;47.526;18.986;2023-04-01T20:15:40;98644.97;;;12.59;91.58
70314;BME280;57725;47.526;18.986;2023-04-01T20:18:26;98633.66;;;12.58;91.47
70314;BME280;57725;47.526;18.986;2023-04-01T20:21:03;98639.03;;;12.57;91.63
70314;BME280;57725;47.526;18.986;2023-04-01T20:23:56;98643.31;;;12.58;91.66
70314;BME280;57725;47.526;18.986;2023-04-01T20:26:32;98635.56;;;12.56;91.51
70314;BME280;57725;47.526;18.986;2023-04-01T20:29:22;98643.44;;;12.56;91.72
70314;BME280;57725;47.526;18.986;2023-04-01T20:31:58;98630.44;;;12.55;91.81
70314;BME280;57725;47.526;18.986;2023-04-01T20:37:48;98641.03;;;12.53;91.56
70314;BME280;57725;47.526;18.986;2023-04-01T20:40:38;98634.94;;;12.53;91.69
70314;BME280;57725;47.526;18.986;2023-04-01T20:46:07;98647.22;;;12.52;91.70
70314;BME280;57725;47.526;18.986;2023-04-01T20:51:32;98661.34;;;12.50;91.79
70314;BME280;57725;47.526;18.986;2023-04-01T20:55:02;98661.34;;;12.50;91.94
70314;BME280;57725;47.526;18.986;2023-04-01T20:57:14;98663.97;;;12.50;91.87
70314;BME280;57725;47.526;18.986;2023-04-01T21:21:21;98673.13;;;12.44;92.10
70314;BME280;57725;47.526;18.986;2023-04-01T21:27:31;98662.84;;;12.41;91.93
70314;BME280;57725;47.526;18.986;2023-04-01T21:29:53;98670.81;;;12.40;91.73
70314;BME280;57725;47.526;18.986;2023-04-01T21:35:20;98677.84;;;12.39;91.92
70314;BME280;57725;47.526;18.986;2023-04-01T21:38:03;98682.22;;;12.39;91.79
70314;BME280;57725;47.526;18.986;2023-04-01T22:02:59;98683.50;;;12.33;92.09
70314;BME280;57725;47.526;18.986;2023-04-01T22:08:24;98682.78;;;12.31;92.03
70314;BME280;57725;47.526;18.986;2023-04-01T22:29:09;98700.56;;;12.26;92.29
70314;BME280;57725;47.526;18.986;2023-04-01T22:31:45;98695.34;;;12.26;92.16
70314;BME280;57725;47.526;18.986;2023-04-01T22:56:11;98720.19;;;12.20;92.25
70314;BME280;57725;47.526;18.986;2023-04-01T22:59:45;98716.81;;;12.18;92.25
70314;BME280;57725;47.526;18.986;2023-04-01T23:01:44;98720.28;;;12.19;92.24
70314;BME280;57725;47.526;18.986;2023-04-01T23:04:17;98726.47;;;12.18;92.14
70314;BME280;57725;47.526;18.986;2023-04-01T23:06:54;98735.25;;;12.17;92.17
70314;BME280;57725;47.526;18.986;2023-04-01T23:09:29;98743.97;;;12.17;92.20
70314;BME280;57725;47.526;18.986;2023-04-01T23:12:06;98743.13;;;12.17;92.42
70314;BME280;57725;47.526;18.986;2023-04-01T23:20:02;98751.09;;;12.15;92.23
70314;BME280;57725;47.526;18.986;2023-04-01T23:38:14;98745.31;;;12.10;92.24
70314;BME280;57725;47.526;18.986;2023-04-01T23:40:40;98747.09;;;12.10;92.43
70314;BME280;57725;47.526;18.986;2023-04-01T23:43:14;98748.88;;;12.09;92.38
70314;BME280;57725;47.526;18.986;2023-04-01T23:45:48;98756.75;;;12.09;92.43
70314;BME280;57725;47.526;18.986;2023-04-01T23:48:18;98755.16;;;12.07;92.38
70314;BME280;57725;47.526;18.986;2023-04-01T23:50:47;98758.63;;;12.07;92.42
70314;BME280;57725;47.526;18.986;2023-04-01T23:53:22;98764.72;;;12.08;92.39
70314;BME280;57725;47.526;18.986;2023-04-01T23:55:48;98763.03;;;12.07;92.33
70314;BME280;57725;47.526;18.986;2023-04-01T23:58:28;98773.50;;;12.07;92.25
